Photometre #347[NE_1.6] Troodos_CAO AOT

File : 20220924_347.hum

24/09/2022,04:21:23,TEMP=14.8,BA=5.64,STAT.h
24/09/2022,04:24:30,TEMP=14.8,BA=5.64,STAT.h
24/09/2022,04:28:10,TEMP=14.8,BA=5.64,STAT.h
24/09/2022,04:32:30,TEMP=14.8,BA=5.64,STAT.h
24/09/2022,04:37:44,TEMP=14.8,BA=5.64,STAT.h
24/09/2022,04:44:10,TEMP=14.8,BA=5.64,STAT.h
24/09/2022,04:52:16,TEMP=14.8,BA=5.64,STAT.h
24/09/2022,04:56:09,TEMP=14.8,BA=5.64,STAT.h
24/09/2022,05:00:29,TEMP=14.8,BA=5.64,STAT.h
24/09/2022,05:05:21,TEMP=14.8,BA=5.64,STAT.h
24/09/2022,05:10:53,TEMP=14.8,BA=5.64,STAT.h
24/09/2022,05:17:14,TEMP=14.8,BA=5.64,STAT.h
24/09/2022,05:24:34,TEMP=14.8,BA=5.64,STAT.h
24/09/2022,05:33:12,TEMP=14.8,BA=5.64,STAT.h
24/09/2022,05:43:28,TEMP=14.8,BA=5.64,STAT.h
24/09/2022,05:55:59,TEMP=14.8,BA=5.64,STAT.h
24/09/2022,06:11:39,TEMP=14.8,BA=5.64,STAT.h
24/09/2022,06:25:56,TEMP=14.8,BA=5.64,STAT.h
24/09/2022,06:40:56,TEMP=14.8,BA=5.64,STAT.h
24/09/2022,06:55:56,TEMP=14.8,BA=5.64,STAT.h
24/09/2022,07:10:56,TEMP=14.8,BA=5.64,STAT.h
24/09/2022,07:25:56,TEMP=14.8,BA=5.64,STAT.h
24/09/2022,07:40:56,TEMP=14.8,BA=5.64,STAT.h
24/09/2022,07:45:56,TEMP=14.8,BA=5.64,STAT.h
24/09/2022,07:55:56,TEMP=14.8,BA=5.64,STAT.h
24/09/2022,08:11:17,TEMP=14.9,BA=5.64,STAT.D=0.5,ExtBa=14.02
24/09/2022,08:26:17,TEMP=15.6,BA=5.64,STAT.D=0.5,ExtBa=14.02
24/09/2022,08:41:18,TEMP=16.1,BA=5.64,STAT.F,ExtBa=13.99
24/09/2022,08:56:17,TEMP=16.6,BA=5.64,STAT.D=0.5,ExtBa=13.72
24/09/2022,09:11:17,TEMP=16.9,BA=5.64,STAT.D=0.5,ExtBa=13.98
24/09/2022,09:26:17,TEMP=17.3,BA=5.64,STAT.D=0.5,ExtBa=14.02
24/09/2022,09:41:19,TEMP=16.9,BA=5.64,STAT.F,ExtBa=13.98
24/09/2022,09:56:17,TEMP=16.9,BA=5.64,STAT.D=0.5,ExtBa=13.63
24/09/2022,10:11:17,TEMP=16.6,BA=5.64,STAT.D=0.5,ExtBa=13.91
24/09/2022,10:26:17,TEMP=17.2,BA=5.64,STAT.D=0.5,ExtBa=13.97
24/09/2022,10:41:19,TEMP=17.4,BA=5.64,STAT.F,ExtBa=13.93
24/09/2022,10:56:17,TEMP=17.4,BA=5.64,STAT.D=0.5,ExtBa=13.61
24/09/2022,11:11:17,TEMP=17.5,BA=5.64,STAT.D=0.5,ExtBa=13.88
24/09/2022,11:26:17,TEMP=17.7,BA=5.64,STAT.D=0.5,ExtBa=13.94
24/09/2022,11:41:18,TEMP=18.2,BA=5.64,STAT.F,ExtBa=13.93
24/09/2022,11:56:16,TEMP=17.9,BA=5.40,STAT.D=0.5,ExtBa=12.95
24/09/2022,12:11:16,TEMP=18.6,BA=5.64,STAT.D=0.5,ExtBa=13.48
24/09/2022,12:26:16,TEMP=18.7,BA=5.64,STAT.D=0.5,ExtBa=13.68
24/09/2022,12:41:18,TEMP=18.8,BA=5.64,STAT.F,ExtBa=13.82
24/09/2022,12:56:16,TEMP=18.9,BA=5.40,STAT.D=0.5,ExtBa=12.94
24/09/2022,13:10:34,TEMP=19.2,BA=5.64,STAT.B=0.5,ExtBa=13.45
24/09/2022,13:26:14,TEMP=19.0,BA=5.60,STAT.A=0.5,ExtBa=13.21
24/09/2022,13:38:45,TEMP=18.7,BA=5.64,STAT.A=0.5,ExtBa=13.49
24/09/2022,13:49:01,TEMP=18.5,BA=5.44,STAT.A=0.5,ExtBa=13.59
24/09/2022,13:57:39,TEMP=17.9,BA=5.44,STAT.A=0.5,ExtBa=13.66
24/09/2022,14:04:59,TEMP=17.7,BA=5.64,STAT.C=0.5,ExtBa=13.70
24/09/2022,14:11:20,TEMP=17.6,BA=5.64,STAT.A=0.5,ExtBa=13.72
24/09/2022,14:16:52,TEMP=17.2,BA=5.64,STAT.A=0.5,ExtBa=13.72
24/09/2022,14:21:44,TEMP=16.3,BA=5.64,STAT.A=0.5,ExtBa=13.74
24/09/2022,14:26:04,TEMP=15.7,BA=5.64,STAT.A=0.5,ExtBa=13.74
24/09/2022,14:29:57,TEMP=15.1,BA=5.64,STAT.B=0.5,ExtBa=13.73
24/09/2022,14:38:03,TEMP=14.3,BA=5.48,STAT.A=0.5,ExtBa=13.79
24/09/2022,14:44:29,TEMP=14.6,BA=5.60,STAT.A=0.5,ExtBa=13.80
24/09/2022,14:50:32,TEMP=14.8,BA=5.44,STAT.A=0.5,ExtBa=13.80
24/09/2022,14:54:02,TEMP=15.1,BA=5.44,STAT.A=0.5,ExtBa=13.76
24/09/2022,14:57:42,TEMP=15.1,BA=5.44,STAT.A=0.5,ExtBa=13.74
24/09/2022,15:00:50,TEMP=15.2,BA=5.64,STAT.A=0.5,ExtBa=13.70